createdAt,value
2019-03-09T00:02:00.529Z,7.19
2019-03-09T00:04:46.177Z,7.16
2019-03-09T00:07:22.168Z,7.19
2019-03-09T00:09:56.929Z,7.26
2019-03-09T00:12:31.910Z,7.23
2019-03-09T00:15:07.319Z,7.38
2019-03-09T00:17:42.252Z,7.36
2019-03-09T00:20:19.157Z,7.30
2019-03-09T00:23:02.998Z,7.29
2019-03-09T00:25:40.411Z,7.28
2019-03-09T00:28:23.963Z,7.24
2019-03-09T00:31:03.679Z,7.16
2019-03-09T00:33:38.846Z,7.18
2019-03-09T00:36:13.785Z,7.10
2019-03-09T00:38:48.626Z,7.09
2019-03-09T00:41:23.467Z,7.09
2019-03-09T00:43:58.290Z,7.02
2019-03-09T00:46:33.226Z,7.03
2019-03-09T00:49:08.140Z,6.97
2019-03-09T00:51:42.988Z,6.91
2019-03-09T00:54:17.793Z,6.87
2019-03-09T00:56:52.935Z,6.77
2019-03-09T00:59:28.107Z,6.71
2019-03-09T01:02:03.005Z,6.70
2019-03-09T01:04:37.908Z,6.67
2019-03-09T01:07:12.764Z,6.62
2019-03-09T01:09:47.657Z,6.60
2019-03-09T01:12:22.595Z,6.59
2019-03-09T01:14:58.375Z,6.54
2019-03-09T01:17:33.401Z,6.53
2019-03-09T01:20:11.509Z,6.53
2019-03-09T01:22:47.471Z,6.50
2019-03-09T01:25:22.772Z,6.54
2019-03-09T01:27:58.571Z,6.57
2019-03-09T01:30:33.668Z,6.54
2019-03-09T01:33:08.561Z,6.53
2019-03-09T01:35:43.425Z,6.55
2019-03-09T01:38:18.296Z,6.50
2019-03-09T01:40:54.032Z,6.53
2019-03-09T01:43:29.009Z,6.56
2019-03-09T01:46:04.003Z,6.58
2019-03-09T01:48:38.788Z,6.55
2019-03-09T01:51:13.771Z,6.50
2019-03-09T01:53:48.693Z,6.54
2019-03-09T01:56:23.445Z,6.53
2019-03-09T01:59:01.425Z,6.57
2019-03-09T02:01:36.295Z,6.59
2019-03-09T02:04:11.901Z,6.64
2019-03-09T02:06:46.949Z,6.55
2019-03-09T02:09:22.021Z,6.57
2019-03-09T02:11:59.526Z,6.55
2019-03-09T02:14:35.412Z,6.64
2019-03-09T02:17:25.254Z,6.62
2019-03-09T02:20:03.871Z,6.59
2019-03-09T02:22:39.899Z,6.60
2019-03-09T02:25:14.866Z,6.58
2019-03-09T02:27:50.535Z,6.56
2019-03-09T02:30:26.714Z,6.53
2019-03-09T02:33:01.591Z,6.66
2019-03-09T02:35:36.487Z,6.60
2019-03-09T02:38:19.507Z,6.64
2019-03-09T02:40:54.825Z,6.70
2019-03-09T02:43:30.089Z,6.64
2019-03-09T02:46:04.948Z,6.67
2019-03-09T02:48:39.806Z,6.69
2019-03-09T02:51:14.651Z,6.73
2019-03-09T02:53:49.510Z,6.73
2019-03-09T02:56:24.362Z,6.78
2019-03-09T02:58:59.276Z,6.80
2019-03-09T03:02:10.936Z,6.86
2019-03-09T03:04:45.799Z,6.87
2019-03-09T03:07:20.656Z,6.94
2019-03-09T03:09:55.484Z,6.98
2019-03-09T03:12:30.443Z,6.99
2019-03-09T03:15:06.719Z,7.02
2019-03-09T03:17:41.564Z,7.04
2019-03-09T03:20:19.180Z,7.07
2019-03-09T03:22:54.106Z,7.13
2019-03-09T03:25:28.901Z,7.17
2019-03-09T03:28:05.233Z,7.18
2019-03-09T03:30:40.177Z,7.20
2019-03-09T03:33:14.926Z,7.17
2019-03-09T03:35:49.786Z,7.22
2019-03-09T03:38:24.572Z,7.24
2019-03-09T03:40:59.534Z,7.25
2019-03-09T03:43:34.656Z,7.30
2019-03-09T03:46:09.423Z,7.31
2019-03-09T03:48:45.298Z,7.32
2019-03-09T03:51:20.198Z,7.33
2019-03-09T03:53:55.009Z,7.40
2019-03-09T03:56:29.920Z,7.39
2019-03-09T03:59:04.972Z,7.45
2019-03-09T04:01:39.776Z,7.50
2019-03-09T04:04:14.535Z,7.50
2019-03-09T04:06:49.522Z,7.54
2019-03-09T04:09:24.889Z,7.53
2019-03-09T04:11:59.777Z,7.58
2019-03-09T04:14:37.083Z,7.60
2019-03-09T04:17:16.439Z,7.55
2019-03-09T04:19:52.195Z,7.56
2019-03-09T04:22:28.666Z,7.59
2019-03-09T04:25:04.938Z,7.66
2019-03-09T04:27:39.804Z,7.63
2019-03-09T04:30:15.211Z,7.59
2019-03-09T04:32:50.087Z,7.59
2019-03-09T04:35:24.941Z,7.54
2019-03-09T04:37:59.832Z,7.45
2019-03-09T04:40:34.785Z,7.41
2019-03-09T04:43:09.554Z,7.39
2019-03-09T04:45:44.500Z,7.40
2019-03-09T04:48:20.319Z,7.40
2019-03-09T04:50:55.103Z,7.47
2019-03-09T04:53:30.036Z,7.46
2019-03-09T04:56:04.849Z,7.44
2019-03-09T04:58:39.603Z,7.45
2019-03-09T05:01:18.678Z,7.38
2019-03-09T05:04:45.699Z,7.48
2019-03-09T05:07:53.104Z,7.56
2019-03-09T05:10:42.866Z,7.61
2019-03-09T05:13:49.032Z,7.67
2019-03-09T05:16:23.904Z,7.69
2019-03-09T05:18:58.652Z,7.64
2019-03-09T05:21:33.520Z,7.68
2019-03-09T05:24:08.448Z,7.75
2019-03-09T05:26:45.092Z,7.76
2019-03-09T05:29:20.770Z,7.73
2019-03-09T05:31:55.726Z,7.67
2019-03-09T05:34:30.604Z,7.73
2019-03-09T05:37:08.812Z,7.70
2019-03-09T05:39:44.560Z,7.68
2019-03-09T05:42:19.424Z,7.76
2019-03-09T05:44:54.359Z,7.73
2019-03-09T05:47:29.187Z,7.72
2019-03-09T05:50:04.839Z,7.67
2019-03-09T05:52:40.146Z,7.68
2019-03-09T05:55:20.615Z,7.69
2019-03-09T05:57:55.478Z,7.62
2019-03-09T06:00:30.266Z,7.62
2019-03-09T06:03:05.268Z,7.61
2019-03-09T06:06:03.162Z,7.60
2019-03-09T06:08:38.415Z,7.50
2019-03-09T06:11:13.783Z,7.45
2019-03-09T06:13:50.492Z,7.35
2019-03-09T06:16:25.421Z,7.28
2019-03-09T06:19:01.340Z,7.29
2019-03-09T06:22:37.032Z,7.31
2019-03-09T06:25:11.997Z,7.28
2019-03-09T06:27:46.905Z,7.21
2019-03-09T06:30:23.481Z,7.22
2019-03-09T06:33:39.067Z,7.23
2019-03-09T06:36:53.788Z,7.25
2019-03-09T06:41:14.954Z,7.23
2019-03-09T06:43:52.487Z,7.26
2019-03-09T06:46:29.748Z,7.27
2019-03-09T06:49:04.820Z,7.29
2019-03-09T06:51:39.682Z,7.35
2019-03-09T06:54:14.506Z,7.34
2019-03-09T06:56:51.098Z,7.39
2019-03-09T06:59:26.107Z,7.46
2019-03-09T07:02:02.034Z,7.48
2019-03-09T07:04:36.926Z,7.52
2019-03-09T07:07:11.923Z,7.60
2019-03-09T07:09:46.662Z,7.70
2019-03-09T07:12:21.803Z,7.72
2019-03-09T07:15:24.651Z,7.73
2019-03-09T07:18:31.371Z,7.89
2019-03-09T07:21:06.482Z,8.13
2019-03-09T07:23:41.768Z,8.11
2019-03-09T07:26:17.556Z,8.09
2019-03-09T07:28:52.488Z,8.09
2019-03-09T07:31:29.830Z,8.15
2019-03-09T07:34:24.692Z,8.06
2019-03-09T07:37:01.374Z,8.15
2019-03-09T07:39:36.550Z,8.19
2019-03-09T07:42:11.454Z,8.25
2019-03-09T07:44:46.386Z,8.24
2019-03-09T07:47:21.245Z,8.31
2019-03-09T07:49:56.110Z,8.44
2019-03-09T07:52:36.503Z,8.50
2019-03-09T07:55:21.440Z,8.59
2019-03-09T07:58:03.673Z,8.71
2019-03-09T08:00:41.051Z,8.62
2019-03-09T08:03:15.886Z,8.60
2019-03-09T08:05:50.690Z,8.60
2019-03-09T08:08:25.633Z,8.50
2019-03-09T08:11:16.754Z,8.57
2019-03-09T08:13:45.146Z,8.58
2019-03-09T08:16:20.042Z,8.74
2019-03-09T08:18:57.463Z,8.75
2019-03-09T08:21:32.483Z,8.59
2019-03-09T08:24:07.315Z,8.65
2019-03-09T08:26:42.312Z,8.65
2019-03-09T08:29:17.200Z,8.72
2019-03-09T08:31:52.785Z,8.69
2019-03-09T08:34:27.660Z,8.75
2019-03-09T08:37:02.563Z,8.73
2019-03-09T08:39:37.387Z,8.72
2019-03-09T08:42:15.233Z,8.78
2019-03-09T08:44:50.028Z,8.78
2019-03-09T08:47:26.546Z,8.90
2019-03-09T08:50:19.984Z,8.94
2019-03-09T08:52:54.891Z,9.06
2019-03-09T08:55:29.967Z,9.07
2019-03-09T08:58:04.860Z,9.13
2019-03-09T09:00:40.672Z,9.08
2019-03-09T09:03:15.703Z,9.12
2019-03-09T09:05:50.684Z,9.12
2019-03-09T09:08:25.646Z,9.06
2019-03-09T09:11:00.631Z,9.23
2019-03-09T09:13:40.703Z,9.29
2019-03-09T09:16:16.500Z,9.14
2019-03-09T09:18:52.203Z,9.25
2019-03-09T09:21:27.145Z,9.38
2019-03-09T09:24:02.882Z,9.34
2019-03-09T09:26:37.926Z,9.39
2019-03-09T09:29:14.447Z,9.43
2019-03-09T09:31:50.175Z,9.46
2019-03-09T09:34:25.152Z,9.50
2019-03-09T09:37:00.076Z,9.60
2019-03-09T09:39:37.479Z,9.57
2019-03-09T09:42:13.825Z,9.69
2019-03-09T09:44:48.732Z,9.74
2019-03-09T09:47:23.729Z,9.75
2019-03-09T09:49:58.637Z,9.65
2019-03-09T09:52:33.660Z,9.65
2019-03-09T09:55:11.410Z,9.51
2019-03-09T09:57:46.399Z,9.73
2019-03-09T10:00:26.093Z,9.56
2019-03-09T10:03:01.133Z,9.72
2019-03-09T10:05:37.471Z,9.82
2019-03-09T10:08:12.437Z,10.03
2019-03-09T10:10:47.252Z,10.12
2019-03-09T10:13:22.307Z,9.95
2019-03-09T10:15:57.678Z,10.09
2019-03-09T10:18:32.795Z,10.05
2019-03-09T10:21:07.675Z,10.06
2019-03-09T10:23:53.356Z,9.98
2019-03-09T10:26:28.699Z,10.00
2019-03-09T10:29:04.470Z,10.14
2019-03-09T10:31:39.528Z,10.14
2019-03-09T10:34:14.479Z,10.36
2019-03-09T10:36:50.617Z,10.44
2019-03-09T10:39:25.933Z,10.61
2019-03-09T10:42:00.841Z,10.80
2019-03-09T10:44:38.335Z,10.53
2019-03-09T10:47:15.915Z,10.37
2019-03-09T10:54:13.361Z,10.58
2019-03-09T10:56:49.127Z,10.70
2019-03-09T10:59:24.184Z,10.76
2019-03-09T11:01:59.133Z,10.83
2019-03-09T11:04:34.367Z,10.93
2019-03-09T11:07:09.259Z,10.87
2019-03-09T11:09:44.413Z,10.95
2019-03-09T11:12:19.343Z,10.68
2019-03-09T11:14:54.257Z,10.66
2019-03-09T11:17:31.944Z,10.70
2019-03-09T11:20:10.697Z,10.84
2019-03-09T11:22:47.475Z,11.02
2019-03-09T11:25:25.876Z,10.94
2019-03-09T11:28:10.116Z,11.06
2019-03-09T11:30:45.019Z,11.28
2019-03-09T11:33:20.521Z,11.64
2019-03-09T11:35:56.889Z,11.89
2019-03-09T11:38:32.589Z,11.76
2019-03-09T11:41:07.616Z,11.62
2019-03-09T11:43:43.779Z,11.46
2019-03-09T11:46:18.639Z,11.32
2019-03-09T11:48:53.560Z,11.12
2019-03-09T11:51:28.372Z,11.33
2019-03-09T11:54:04.397Z,11.57
2019-03-09T11:56:41.727Z,11.36
2019-03-09T11:59:18.198Z,11.01
2019-03-09T12:01:55.675Z,10.85
2019-03-09T12:04:31.255Z,10.73
2019-03-09T12:07:08.627Z,10.77
2019-03-09T12:09:46.046Z,10.84
2019-03-09T12:12:21.084Z,10.85
2019-03-09T12:14:56.266Z,10.91
2019-03-09T12:17:31.493Z,11.01
2019-03-09T12:20:07.380Z,11.07
2019-03-09T12:22:42.490Z,10.86
2019-03-09T12:25:17.439Z,10.58
2019-03-09T12:27:56.032Z,10.63
2019-03-09T12:30:30.935Z,10.81
2019-03-09T12:33:05.946Z,10.84
2019-03-09T12:35:40.893Z,10.90
2019-03-09T12:38:16.000Z,11.28
2019-03-09T12:40:52.081Z,11.10
2019-03-09T12:43:28.183Z,11.14
2019-03-09T12:46:04.739Z,11.15
2019-03-09T12:48:39.753Z,11.17
2019-03-09T12:51:17.399Z,11.27
2019-03-09T12:53:54.623Z,11.42
2019-03-09T12:56:30.331Z,11.46
2019-03-09T12:59:06.111Z,11.50
2019-03-09T13:01:41.986Z,11.34
2019-03-09T13:04:16.947Z,11.47
2019-03-09T13:06:51.822Z,11.57
2019-03-09T13:09:27.685Z,11.52
2019-03-09T13:12:02.629Z,11.30
2019-03-09T13:14:38.039Z,11.16
2019-03-09T13:17:13.154Z,10.99
2019-03-09T13:19:47.970Z,11.27
2019-03-09T13:22:22.868Z,11.23
2019-03-09T13:24:57.778Z,11.34
2019-03-09T13:27:32.703Z,11.35
2019-03-09T13:30:09.313Z,11.57
2019-03-09T13:32:44.350Z,11.31
2019-03-09T13:35:19.161Z,11.60
2019-03-09T13:37:54.343Z,11.69
2019-03-09T13:40:29.253Z,12.08
2019-03-09T13:43:04.178Z,11.93
2019-03-09T13:45:39.111Z,11.60
2019-03-09T13:48:14.029Z,11.49
2019-03-09T13:50:48.931Z,11.37
2019-03-09T13:53:23.910Z,11.32
2019-03-09T13:55:59.002Z,11.09
2019-03-09T13:58:33.951Z,10.87
2019-03-09T14:01:08.748Z,10.69
2019-03-09T14:03:44.561Z,10.65
2019-03-09T14:06:19.481Z,10.58
2019-03-09T14:08:54.430Z,10.65
2019-03-09T14:11:31.965Z,10.40
2019-03-09T14:14:06.747Z,10.38
2019-03-09T14:16:41.633Z,10.26
2019-03-09T14:19:16.532Z,10.13
2019-03-09T14:21:51.456Z,9.64
2019-03-09T14:24:26.406Z,9.25
2019-03-09T14:27:03.514Z,8.85
2019-03-09T14:29:38.304Z,8.54
2019-03-09T14:33:39.363Z,8.43
2019-03-09T14:36:18.524Z,8.36
2019-03-09T14:38:54.335Z,7.95
2019-03-09T14:41:29.447Z,7.89
2019-03-09T14:44:04.465Z,7.94
2019-03-09T14:46:39.374Z,7.96
2019-03-09T14:49:14.328Z,8.06
2019-03-09T14:51:50.299Z,7.96
2019-03-09T14:54:26.266Z,7.93
2019-03-09T14:57:03.035Z,7.86
2019-03-09T14:59:37.920Z,7.81
2019-03-09T15:02:12.811Z,7.79
2019-03-09T15:04:47.749Z,7.73
2019-03-09T15:07:22.783Z,7.72
2019-03-09T15:10:00.321Z,7.68
2019-03-09T15:12:37.390Z,7.35
2019-03-09T15:15:13.376Z,7.18
2019-03-09T15:17:48.481Z,7.23
2019-03-09T15:20:23.360Z,7.33
2019-03-09T15:22:58.274Z,7.52
2019-03-09T15:25:33.272Z,7.60
2019-03-09T15:28:08.199Z,7.55
2019-03-09T15:30:43.103Z,7.61
2019-03-09T15:33:17.960Z,7.75
2019-03-09T15:35:52.933Z,7.96
2019-03-09T15:38:27.819Z,8.20
2019-03-09T15:41:03.613Z,8.29
2019-03-09T15:43:38.483Z,8.13
2019-03-09T15:46:13.508Z,8.11
2019-03-09T15:48:48.372Z,8.01
2019-03-09T15:51:23.347Z,7.96
2019-03-09T15:53:58.120Z,7.94
2019-03-09T15:56:32.999Z,7.95
2019-03-09T15:59:07.872Z,8.08
2019-03-09T16:01:43.041Z,8.07
2019-03-09T16:04:18.007Z,8.08
2019-03-09T16:06:53.059Z,8.09
2019-03-09T16:09:27.955Z,8.17
2019-03-09T16:12:02.846Z,7.97
2019-03-09T16:14:38.215Z,7.61
2019-03-09T16:17:15.989Z,7.30
2019-03-09T16:19:50.876Z,7.53
2019-03-09T16:22:25.764Z,7.98
2019-03-09T16:25:00.635Z,7.84
2019-03-09T16:27:35.619Z,7.78
2019-03-09T16:30:14.096Z,7.61
2019-03-09T16:32:53.564Z,7.49
2019-03-09T16:35:34.521Z,7.44
2019-03-09T16:38:09.415Z,7.38
2019-03-09T16:40:44.306Z,7.39
2019-03-09T16:43:19.174Z,7.35
2019-03-09T16:45:54.300Z,7.35
2019-03-09T16:48:29.142Z,7.32
2019-03-09T16:51:04.079Z,7.26
2019-03-09T16:53:39.027Z,7.32
2019-03-09T16:56:14.767Z,7.31
2019-03-09T16:58:49.705Z,7.10
2019-03-09T17:01:24.506Z,6.90
2019-03-09T17:03:59.377Z,6.68
2019-03-09T17:06:34.286Z,6.56
2019-03-09T17:09:09.406Z,6.42
2019-03-09T17:11:46.242Z,6.36
2019-03-09T17:14:21.188Z,6.26
2019-03-09T17:16:56.148Z,6.10
2019-03-09T17:19:31.047Z,5.99
2019-03-09T17:22:09.649Z,5.93
2019-03-09T17:24:44.456Z,5.78
2019-03-09T17:27:19.292Z,5.76
2019-03-09T17:29:54.203Z,5.73
2019-03-09T17:32:29.148Z,5.73
2019-03-09T17:35:04.066Z,5.66
2019-03-09T17:37:42.713Z,5.64
2019-03-09T17:40:18.077Z,5.64
2019-03-09T17:42:53.085Z,5.67
2019-03-09T17:45:28.398Z,5.70
2019-03-09T17:48:03.460Z,5.74
2019-03-09T17:50:39.197Z,5.84
2019-03-09T17:53:14.213Z,5.79
2019-03-09T17:55:51.390Z,5.90
2019-03-09T17:58:26.630Z,5.82
2019-03-09T18:01:02.621Z,5.80
2019-03-09T18:03:37.657Z,5.84
2019-03-09T18:06:12.575Z,5.81
2019-03-09T18:08:47.482Z,5.78
2019-03-09T18:11:22.338Z,5.77
2019-03-09T18:14:07.021Z,5.78
2019-03-09T18:16:39.968Z,5.74
2019-03-09T18:19:17.795Z,5.75
2019-03-09T18:21:52.784Z,5.78
2019-03-09T18:24:34.213Z,5.84
2019-03-09T18:27:09.058Z,5.92
2019-03-09T18:29:43.967Z,5.95
2019-03-09T18:32:22.006Z,6.00
2019-03-09T18:34:56.888Z,6.06
2019-03-09T18:37:34.625Z,6.08
2019-03-09T18:40:25.151Z,6.11
2019-03-09T18:43:10.816Z,6.11
2019-03-09T18:48:35.983Z,6.09
2019-03-09T18:51:10.997Z,6.08
2019-03-09T18:53:45.856Z,6.09
2019-03-09T18:56:20.819Z,6.10
2019-03-09T18:58:56.296Z,6.08
2019-03-09T19:01:31.272Z,6.12
2019-03-09T19:04:06.141Z,6.12
2019-03-09T19:06:41.041Z,6.16
2019-03-09T19:09:15.918Z,6.15
2019-03-09T19:11:50.808Z,6.16
2019-03-09T19:14:25.780Z,6.19
2019-03-09T19:17:00.732Z,6.20
2019-03-09T19:19:38.070Z,6.16
2019-03-09T19:22:12.957Z,6.21
2019-03-09T19:24:47.853Z,6.23
2019-03-09T19:27:22.703Z,6.23
2019-03-09T19:29:57.512Z,6.25
2019-03-09T19:32:32.443Z,6.27
2019-03-09T19:35:16.864Z,6.27
2019-03-09T19:37:51.754Z,6.27
2019-03-09T19:40:26.629Z,6.34
2019-03-09T19:43:01.528Z,6.30
2019-03-09T19:45:36.336Z,6.33
2019-03-09T19:48:12.908Z,6.33
2019-03-09T19:50:47.814Z,6.33
2019-03-09T19:53:22.737Z,6.33
2019-03-09T19:55:57.653Z,6.31
2019-03-09T19:58:32.717Z,6.33
2019-03-09T20:01:07.603Z,6.39
2019-03-09T20:03:42.783Z,6.36
2019-03-09T20:06:18.068Z,6.25
2019-03-09T20:11:51.344Z,6.31
2019-03-09T20:22:11.457Z,6.17
2019-03-09T20:24:46.345Z,6.10
2019-03-09T20:27:23.428Z,6.08
2019-03-09T20:29:58.327Z,6.01
2019-03-09T20:32:33.354Z,5.99
2019-03-09T20:35:08.484Z,5.98
2019-03-09T20:37:43.463Z,6.01
2019-03-09T20:40:18.336Z,5.88
2019-03-09T20:42:53.395Z,5.86
2019-03-09T20:45:30.643Z,5.80
2019-03-09T20:48:05.497Z,5.74
2019-03-09T20:50:40.447Z,5.70
2019-03-09T20:53:15.378Z,5.73
2019-03-09T20:55:50.248Z,5.67
2019-03-09T20:58:26.016Z,5.69
2019-03-09T21:01:00.902Z,5.67
2019-03-09T21:03:36.499Z,5.74
2019-03-09T21:06:11.445Z,5.71
2019-03-09T21:08:46.378Z,5.74
2019-03-09T21:11:21.232Z,5.77
2019-03-09T21:13:56.329Z,5.75
2019-03-09T21:16:31.569Z,5.78
2019-03-09T21:19:07.107Z,5.76
2019-03-09T21:21:42.898Z,5.81
2019-03-09T21:24:19.053Z,5.85
2019-03-09T21:26:54.012Z,5.89
2019-03-09T21:29:30.478Z,5.92
2019-03-09T21:32:05.669Z,5.89
2019-03-09T21:34:40.571Z,5.81
2019-03-09T21:37:15.348Z,5.77
2019-03-09T21:39:50.254Z,5.76
2019-03-09T21:42:25.152Z,5.71
2019-03-09T21:45:00.082Z,5.71
2019-03-09T21:47:35.028Z,5.70
2019-03-09T21:50:11.801Z,5.72
2019-03-09T21:52:46.767Z,5.72
2019-03-09T21:55:21.695Z,5.69
2019-03-09T21:57:56.573Z,5.77
2019-03-09T22:00:31.455Z,5.73
2019-03-09T22:03:06.244Z,5.78
2019-03-09T22:05:42.215Z,5.78
2019-03-09T22:08:17.072Z,5.73
2019-03-09T22:10:52.546Z,5.73
2019-03-09T22:13:33.423Z,5.67
2019-03-09T22:16:16.096Z,5.70
2019-03-09T22:18:50.970Z,5.74
2019-03-09T22:21:25.871Z,5.74
2019-03-09T22:24:00.762Z,5.81
2019-03-09T22:26:35.719Z,5.83
2019-03-09T22:29:10.597Z,5.79
2019-03-09T22:31:45.527Z,5.77
2019-03-09T22:34:26.058Z,5.82
2019-03-09T22:37:01.102Z,5.80
2019-03-09T22:39:35.922Z,5.81
2019-03-09T22:42:10.804Z,5.81
2019-03-09T22:44:45.685Z,5.88
2019-03-09T22:47:20.591Z,5.87
2019-03-09T22:49:55.432Z,5.91
2019-03-09T22:52:30.227Z,5.92
2019-03-09T22:55:06.096Z,5.94
2019-03-09T22:57:41.033Z,5.93
2019-03-09T23:00:19.647Z,5.99
2019-03-09T23:02:56.051Z,5.99
2019-03-09T23:05:30.923Z,6.04
2019-03-09T23:08:05.942Z,6.07
2019-03-09T23:10:40.851Z,6.07
2019-03-09T23:13:15.811Z,6.05
2019-03-09T23:15:50.603Z,6.02
2019-03-09T23:18:25.549Z,6.05
2019-03-09T23:21:00.361Z,6.08
2019-03-09T23:23:35.313Z,6.12
2019-03-09T23:26:10.290Z,6.11
2019-03-09T23:28:50.441Z,6.15
2019-03-09T23:31:25.277Z,6.13
2019-03-09T23:34:00.077Z,6.19
2019-03-09T23:36:34.933Z,6.16
2019-03-09T23:39:11.753Z,6.22
2019-03-09T23:41:46.701Z,6.25
2019-03-09T23:44:21.569Z,6.22
2019-03-09T23:46:56.323Z,6.28
2019-03-09T23:49:32.696Z,6.29
2019-03-09T23:52:07.860Z,6.29
2019-03-09T23:54:42.755Z,6.30
2019-03-09T23:57:17.920Z,6.27
2019-03-09T23:59:52.863Z,6.28
